sensor_id;sensor_type;location;lat;lon;timestamp;pressure;altitude;pressure_sealevel;temperature;humidity
5283;BME280;15376;48.540;9.268;2023-07-20T00:01:13;97361.72;;;19.80;71.43
5283;BME280;15376;48.540;9.268;2023-07-20T00:03:39;97344.31;;;19.71;72.27
5283;BME280;15376;48.540;9.268;2023-07-20T00:06:04;97385.75;;;19.98;72.30
5283;BME280;15376;48.540;9.268;2023-07-20T00:08:30;97383.47;;;19.90;71.57
5283;BME280;15376;48.540;9.268;2023-07-20T00:10:55;97365.56;;;19.84;71.93
5283;BME280;15376;48.540;9.268;2023-07-20T00:13:21;97365.97;;;19.76;71.96
5283;BME280;15376;48.540;9.268;2023-07-20T00:15:47;97366.84;;;19.64;71.66
5283;BME280;15376;48.540;9.268;2023-07-20T00:18:12;97329.25;;;19.41;71.46
5283;BME280;15376;48.540;9.268;2023-07-20T00:20:38;97347.84;;;19.54;71.79
5283;BME280;15376;48.540;9.268;2023-07-20T00:23:04;97374.94;;;19.64;71.09
5283;BME280;15376;48.540;9.268;2023-07-20T00:25:29;97375.84;;;19.70;71.37
5283;BME280;15376;48.540;9.268;2023-07-20T00:27:54;97381.47;;;19.69;72.09
5283;BME280;15376;48.540;9.268;2023-07-20T00:30:20;97324.25;;;19.33;71.89
5283;BME280;15376;48.540;9.268;2023-07-20T00:32:45;97373.16;;;19.70;72.85
5283;BME280;15376;48.540;9.268;2023-07-20T00:35:11;97373.16;;;19.70;73.99
5283;BME280;15376;48.540;9.268;2023-07-20T00:37:38;97303.53;;;19.33;73.62
5283;BME280;15376;48.540;9.268;2023-07-20T00:40:04;97363.19;;;19.71;73.16
5283;BME280;15376;48.540;9.268;2023-07-20T00:42:31;97350.09;;;19.62;71.87
5283;BME280;15376;48.540;9.268;2023-07-20T00:44:56;97321.91;;;19.37;72.19
5283;BME280;15376;48.540;9.268;2023-07-20T00:47:21;97367.66;;;19.65;71.03
5283;BME280;15376;48.540;9.268;2023-07-20T00:49:47;97362.47;;;19.58;71.74
5283;BME280;15376;48.540;9.268;2023-07-20T00:52:14;97372.72;;;19.61;71.08
5283;BME280;15376;48.540;9.268;2023-07-20T00:54:41;97325.31;;;19.32;72.86
5283;BME280;15376;48.540;9.268;2023-07-20T00:57:07;97372.81;;;19.67;73.13
5283;BME280;15376;48.540;9.268;2023-07-20T00:59:34;97353.59;;;19.46;75.01
5283;BME280;15376;48.540;9.268;2023-07-20T01:01:59;97370.22;;;19.55;74.49
5283;BME280;15376;48.540;9.268;2023-07-20T01:04:24;97328.34;;;19.36;73.07
5283;BME280;15376;48.540;9.268;2023-07-20T01:07:02;97341.56;;;19.37;72.79
5283;BME280;15376;48.540;9.268;2023-07-20T01:09:48;97378.53;;;19.53;72.58
5283;BME280;15376;48.540;9.268;2023-07-20T01:12:27;97373.25;;;19.58;73.69
5283;BME280;15376;48.540;9.268;2023-07-20T01:14:55;97363.44;;;19.52;71.99
5283;BME280;15376;48.540;9.268;2023-07-20T01:17:20;97314.59;;;19.20;70.81
5283;BME280;15376;48.540;9.268;2023-07-20T01:19:46;97338.38;;;19.40;71.68
5283;BME280;15376;48.540;9.268;2023-07-20T01:25:00;97337.97;;;19.31;71.63
5283;BME280;15376;48.540;9.268;2023-07-20T01:27:55;97371.97;;;19.49;70.46
5283;BME280;15376;48.540;9.268;2023-07-20T01:33:11;97334.59;;;19.24;69.61
5283;BME280;15376;48.540;9.268;2023-07-20T01:35:38;97364.06;;;19.31;68.67
5283;BME280;15376;48.540;9.268;2023-07-20T01:38:05;97374.03;;;19.30;69.87
5283;BME280;15376;48.540;9.268;2023-07-20T01:40:32;97375.91;;;19.30;70.75
5283;BME280;15376;48.540;9.268;2023-07-20T01:42:58;97335.53;;;19.02;69.76
5283;BME280;15376;48.540;9.268;2023-07-20T01:45:23;97378.75;;;19.23;68.99
5283;BME280;15376;48.540;9.268;2023-07-20T01:47:48;97368.78;;;19.24;70.69
5283;BME280;15376;48.540;9.268;2023-07-20T01:50:14;97287.28;;;18.83;70.96
5283;BME280;15376;48.540;9.268;2023-07-20T01:52:39;97363.00;;;19.32;69.92
5283;BME280;15376;48.540;9.268;2023-07-20T01:55:05;97326.66;;;19.01;68.78
5283;BME280;15376;48.540;9.268;2023-07-20T01:57:30;97364.56;;;19.28;69.95
5283;BME280;15376;48.540;9.268;2023-07-20T01:59:56;97373.28;;;19.18;69.61
5283;BME280;15376;48.540;9.268;2023-07-20T02:02:25;97317.28;;;18.75;69.68
5283;BME280;15376;48.540;9.268;2023-07-20T02:04:51;97364.88;;;19.15;70.89
5283;BME280;15376;48.540;9.268;2023-07-20T02:07:16;97357.03;;;19.13;72.03
5283;BME280;15376;48.540;9.268;2023-07-20T02:09:42;97303.34;;;18.78;71.75
5283;BME280;15376;48.540;9.268;2023-07-20T02:12:07;97367.97;;;19.23;72.28
5283;BME280;15376;48.540;9.268;2023-07-20T02:14:33;97325.72;;;18.95;72.52
5283;BME280;15376;48.540;9.268;2023-07-20T02:16:58;97336.00;;;18.98;73.19
5283;BME280;15376;48.540;9.268;2023-07-20T02:19:25;97348.31;;;18.94;71.96
5283;BME280;15376;48.540;9.268;2023-07-20T02:21:50;97371.31;;;19.14;73.72
5283;BME280;15376;48.540;9.268;2023-07-20T02:24:16;97364.53;;;19.11;72.80
5283;BME280;15376;48.540;9.268;2023-07-20T02:26:41;97336.06;;;18.87;72.35
5283;BME280;15376;48.540;9.268;2023-07-20T02:29:07;97293.09;;;18.52;72.83
5283;BME280;15376;48.540;9.268;2023-07-20T02:31:33;97351.84;;;18.83;71.62
5283;BME280;15376;48.540;9.268;2023-07-20T02:33:58;97346.28;;;18.73;72.64
5283;BME280;15376;48.540;9.268;2023-07-20T02:36:24;97373.81;;;18.92;73.24
5283;BME280;15376;48.540;9.268;2023-07-20T02:38:49;97378.63;;;18.90;72.48
5283;BME280;15376;48.540;9.268;2023-07-20T02:41:14;97371.75;;;18.82;72.53
5283;BME280;15376;48.540;9.268;2023-07-20T02:43:40;97332.25;;;18.59;71.75
5283;BME280;15376;48.540;9.268;2023-07-20T02:46:05;97357.75;;;18.57;71.24
5283;BME280;15376;48.540;9.268;2023-07-20T02:48:30;97385.94;;;18.66;71.83
5283;BME280;15376;48.540;9.268;2023-07-20T02:50:56;97384.19;;;18.60;72.00
5283;BME280;15376;48.540;9.268;2023-07-20T02:53:21;97379.50;;;18.44;72.29
5283;BME280;15376;48.540;9.268;2023-07-20T02:55:46;97340.72;;;18.16;72.52
5283;BME280;15376;48.540;9.268;2023-07-20T02:58:12;97365.28;;;18.31;72.84
5283;BME280;15376;48.540;9.268;2023-07-20T03:00:38;97394.16;;;18.36;71.64
5283;BME280;15376;48.540;9.268;2023-07-20T03:03:03;97400.47;;;18.30;70.72
5283;BME280;15376;48.540;9.268;2023-07-20T03:05:28;97390.53;;;18.30;71.62
5283;BME280;15376;48.540;9.268;2023-07-20T03:07:55;97368.78;;;18.20;71.64
5283;BME280;15376;48.540;9.268;2023-07-20T03:10:21;97386.91;;;18.25;72.06
5283;BME280;15376;48.540;9.268;2023-07-20T03:12:46;97381.38;;;18.08;72.23
5283;BME280;15376;48.540;9.268;2023-07-20T03:15:11;97390.16;;;18.04;72.71
5283;BME280;15376;48.540;9.268;2023-07-20T03:17:37;97365.00;;;17.75;73.79
5283;BME280;15376;48.540;9.268;2023-07-20T03:20:02;97380.09;;;17.87;74.21
5283;BME280;15376;48.540;9.268;2023-07-20T03:22:28;97371.66;;;17.72;75.03
5283;BME280;15376;48.540;9.268;2023-07-20T03:24:53;97358.88;;;17.56;75.07
5283;BME280;15376;48.540;9.268;2023-07-20T03:27:19;97379.19;;;17.63;76.04
5283;BME280;15376;48.540;9.268;2023-07-20T03:29:44;97381.88;;;17.52;76.76
5283;BME280;15376;48.540;9.268;2023-07-20T03:32:10;97380.88;;;17.34;77.18
5283;BME280;15376;48.540;9.268;2023-07-20T03:34:35;97396.34;;;17.21;78.36
5283;BME280;15376;48.540;9.268;2023-07-20T03:37:01;97360.03;;;16.88;79.03
5283;BME280;15376;48.540;9.268;2023-07-20T03:39:26;97367.13;;;16.83;80.11
5283;BME280;15376;48.540;9.268;2023-07-20T03:41:52;97382.00;;;16.97;80.73
5283;BME280;15376;48.540;9.268;2023-07-20T03:44:17;97356.28;;;16.78;80.52
5283;BME280;15376;48.540;9.268;2023-07-20T03:46:43;97408.59;;;16.98;81.15
5283;BME280;15376;48.540;9.268;2023-07-20T03:49:09;97408.25;;;16.95;81.74
5283;BME280;15376;48.540;9.268;2023-07-20T03:51:35;97412.03;;;16.87;81.98
5283;BME280;15376;48.540;9.268;2023-07-20T03:54:00;97371.75;;;16.76;82.63
5283;BME280;15376;48.540;9.268;2023-07-20T03:56:26;97357.25;;;16.65;83.03
5283;BME280;15376;48.540;9.268;2023-07-20T03:58:51;97405.34;;;16.96;83.77
5283;BME280;15376;48.540;9.268;2023-07-20T04:01:17;97396.16;;;17.04;83.72
5283;BME280;15376;48.540;9.268;2023-07-20T04:03:42;97401.00;;;16.95;83.68
5283;BME280;15376;48.540;9.268;2023-07-20T04:06:08;97407.88;;;16.91;84.63
5283;BME280;15376;48.540;9.268;2023-07-20T04:08:33;97408.91;;;17.09;84.52
5283;BME280;15376;48.540;9.268;2023-07-20T04:11:01;97378.72;;;16.95;85.00
5283;BME280;15376;48.540;9.268;2023-07-20T04:13:26;97380.22;;;16.91;84.62
5283;BME280;15376;48.540;9.268;2023-07-20T04:15:53;97421.66;;;17.13;84.43
5283;BME280;15376;48.540;9.268;2023-07-20T04:18:18;97389.59;;;17.00;84.73
5283;BME280;15376;48.540;9.268;2023-07-20T04:20:43;97319.38;;;16.55;85.04
5283;BME280;15376;48.540;9.268;2023-07-20T04:23:09;97418.16;;;17.24;84.86
5283;BME280;15376;48.540;9.268;2023-07-20T04:25:34;97419.94;;;17.30;84.29
5283;BME280;15376;48.540;9.268;2023-07-20T04:28:04;97384.59;;;17.04;83.18
5283;BME280;15376;48.540;9.268;2023-07-20T04:30:30;97391.53;;;17.11;83.50
5283;BME280;15376;48.540;9.268;2023-07-20T04:32:55;97405.09;;;17.16;83.28
5283;BME280;15376;48.540;9.268;2023-07-20T04:35:52;97420.63;;;17.26;83.22
5283;BME280;15376;48.540;9.268;2023-07-20T04:38:18;97431.19;;;17.39;83.81
5283;BME280;15376;48.540;9.268;2023-07-20T04:40:44;97422.25;;;17.45;84.15
5283;BME280;15376;48.540;9.268;2023-07-20T04:43:10;97420.00;;;17.42;84.71
5283;BME280;15376;48.540;9.268;2023-07-20T04:45:35;97396.16;;;17.34;84.93
5283;BME280;15376;48.540;9.268;2023-07-20T04:48:01;97423.28;;;17.44;83.91
5283;BME280;15376;48.540;9.268;2023-07-20T04:50:26;97405.72;;;17.30;83.86
5283;BME280;15376;48.540;9.268;2023-07-20T04:52:51;97378.38;;;17.21;84.96
5283;BME280;15376;48.540;9.268;2023-07-20T04:55:18;97401.56;;;17.46;85.52
5283;BME280;15376;48.540;9.268;2023-07-20T04:57:43;97427.09;;;17.66;85.63
5283;BME280;15376;48.540;9.268;2023-07-20T05:00:09;97402.53;;;17.63;86.08
5283;BME280;15376;48.540;9.268;2023-07-20T05:02:36;97423.81;;;17.94;84.25
5283;BME280;15376;48.540;9.268;2023-07-20T05:05:03;97385.38;;;17.64;83.93
5283;BME280;15376;48.540;9.268;2023-07-20T05:07:30;97425.53;;;17.89;83.82
5283;BME280;15376;48.540;9.268;2023-07-20T05:09:55;97432.56;;;18.02;83.15
5283;BME280;15376;48.540;9.268;2023-07-20T05:12:20;97409.56;;;17.94;82.78
5283;BME280;15376;48.540;9.268;2023-07-20T05:14:46;97433.41;;;18.14;81.70
5283;BME280;15376;48.540;9.268;2023-07-20T05:17:11;97432.25;;;18.21;81.08
5283;BME280;15376;48.540;9.268;2023-07-20T05:19:36;97424.63;;;18.18;81.13
5283;BME280;15376;48.540;9.268;2023-07-20T05:22:02;97397.50;;;18.08;80.99
5283;BME280;15376;48.540;9.268;2023-07-20T05:24:27;97407.00;;;18.22;79.71
5283;BME280;15376;48.540;9.268;2023-07-20T05:26:53;97440.22;;;18.63;79.29
5283;BME280;15376;48.540;9.268;2023-07-20T05:29:19;97431.56;;;18.73;79.30
5283;BME280;15376;48.540;9.268;2023-07-20T05:31:44;97435.75;;;18.80;78.26
5283;BME280;15376;48.540;9.268;2023-07-20T05:34:10;97398.22;;;18.62;77.05
5283;BME280;15376;48.540;9.268;2023-07-20T05:36:35;97401.63;;;18.69;77.81
5283;BME280;15376;48.540;9.268;2023-07-20T05:39:01;97420.75;;;18.84;76.26
5283;BME280;15376;48.540;9.268;2023-07-20T05:41:26;97437.34;;;18.93;76.09
5283;BME280;15376;48.540;9.268;2023-07-20T05:43:51;97414.22;;;18.80;76.38
5283;BME280;15376;48.540;9.268;2023-07-20T05:46:17;97437.34;;;19.05;76.54
5283;BME280;15376;48.540;9.268;2023-07-20T05:48:42;97401.91;;;18.84;74.27
5283;BME280;15376;48.540;9.268;2023-07-20T05:51:08;97421.31;;;18.98;75.13
5283;BME280;15376;48.540;9.268;2023-07-20T05:53:35;97434.66;;;19.05;74.95
5283;BME280;15376;48.540;9.268;2023-07-20T05:56:00;97438.75;;;19.07;75.33
5283;BME280;15376;48.540;9.268;2023-07-20T05:58:26;97377.28;;;18.76;74.25
5283;BME280;15376;48.540;9.268;2023-07-20T06:00:53;97427.03;;;19.13;74.91
5283;BME280;15376;48.540;9.268;2023-07-20T06:03:18;97413.59;;;19.02;72.20
5283;BME280;15376;48.540;9.268;2023-07-20T06:05:43;97440.31;;;19.20;72.12
5283;BME280;15376;48.540;9.268;2023-07-20T06:08:09;97447.44;;;19.26;73.51
5283;BME280;15376;48.540;9.268;2023-07-20T06:10:34;97423.09;;;19.21;72.77
5283;BME280;15376;48.540;9.268;2023-07-20T06:12:59;97445.16;;;19.46;71.35
5283;BME280;15376;48.540;9.268;2023-07-20T06:15:27;97434.53;;;19.40;71.43
5283;BME280;15376;48.540;9.268;2023-07-20T06:17:54;97395.38;;;19.20;71.67
5283;BME280;15376;48.540;9.268;2023-07-20T06:20:19;97438.25;;;19.50;71.35
5283;BME280;15376;48.540;9.268;2023-07-20T06:22:44;97442.81;;;19.50;71.53
5283;BME280;15376;48.540;9.268;2023-07-20T06:25:11;97433.56;;;19.57;72.78
5283;BME280;15376;48.540;9.268;2023-07-20T06:27:36;97416.41;;;19.63;71.30
5283;BME280;15376;48.540;9.268;2023-07-20T06:30:02;97443.16;;;19.82;70.64
5283;BME280;15376;48.540;9.268;2023-07-20T06:32:27;97414.97;;;19.73;70.21
5283;BME280;15376;48.540;9.268;2023-07-20T06:34:52;97436.41;;;19.96;71.17
5283;BME280;15376;48.540;9.268;2023-07-20T06:37:18;97440.88;;;20.07;70.49
5283;BME280;15376;48.540;9.268;2023-07-20T06:39:45;97440.22;;;20.17;68.66
5283;BME280;15376;48.540;9.268;2023-07-20T06:42:10;97439.41;;;20.16;68.43
5283;BME280;15376;48.540;9.268;2023-07-20T06:44:36;97427.06;;;20.20;68.55
5283;BME280;15376;48.540;9.268;2023-07-20T06:47:01;97422.75;;;20.19;68.91
5283;BME280;15376;48.540;9.268;2023-07-20T06:49:27;97436.63;;;20.45;69.52
5283;BME280;15376;48.540;9.268;2023-07-20T06:51:53;97446.59;;;20.61;67.95
5283;BME280;15376;48.540;9.268;2023-07-20T06:54:18;97436.06;;;20.59;68.15
5283;BME280;15376;48.540;9.268;2023-07-20T06:56:44;97440.94;;;20.79;67.56
5283;BME280;15376;48.540;9.268;2023-07-20T06:59:09;97433.13;;;20.83;65.73
5283;BME280;15376;48.540;9.268;2023-07-20T07:01:34;97422.41;;;20.88;65.71
5283;BME280;15376;48.540;9.268;2023-07-20T07:04:00;97379.28;;;20.71;66.57
5283;BME280;15376;48.540;9.268;2023-07-20T07:06:25;97437.56;;;21.11;65.79
5283;BME280;15376;48.540;9.268;2023-07-20T07:08:52;97394.03;;;21.07;64.96
5283;BME280;15376;48.540;9.268;2023-07-20T07:11:18;97439.44;;;21.32;63.56
5283;BME280;15376;48.540;9.268;2023-07-20T07:13:43;97406.28;;;21.15;64.61
5283;BME280;15376;48.540;9.268;2023-07-20T07:16:11;97434.84;;;21.54;63.76
5283;BME280;15376;48.540;9.268;2023-07-20T07:18:37;97439.38;;;21.76;62.57
5283;BME280;15376;48.540;9.268;2023-07-20T07:21:02;97419.91;;;21.74;60.68
5283;BME280;15376;48.540;9.268;2023-07-20T07:23:27;97428.56;;;21.76;60.82
5283;BME280;15376;48.540;9.268;2023-07-20T07:25:53;97443.38;;;21.95;59.98
5283;BME280;15376;48.540;9.268;2023-07-20T07:28:18;97384.94;;;21.94;59.95
5283;BME280;15376;48.540;9.268;2023-07-20T07:30:43;97436.44;;;22.41;59.72
5283;BME280;15376;48.540;9.268;2023-07-20T07:33:09;97387.31;;;22.17;59.29
5283;BME280;15376;48.540;9.268;2023-07-20T07:35:35;97419.16;;;22.47;58.28
5283;BME280;15376;48.540;9.268;2023-07-20T07:38:01;97380.69;;;22.35;60.40
5283;BME280;15376;48.540;9.268;2023-07-20T07:40:26;97418.44;;;22.62;56.97
5283;BME280;15376;48.540;9.268;2023-07-20T07:42:51;97424.88;;;22.51;57.99
5283;BME280;15376;48.540;9.268;2023-07-20T07:45:17;97403.75;;;22.48;59.35
5283;BME280;15376;48.540;9.268;2023-07-20T07:47:42;97421.06;;;22.47;59.32
5283;BME280;15376;48.540;9.268;2023-07-20T07:50:08;97378.13;;;22.18;58.84
5283;BME280;15376;48.540;9.268;2023-07-20T07:52:33;97407.53;;;22.47;59.48
5283;BME280;15376;48.540;9.268;2023-07-20T07:54:58;97388.03;;;22.45;58.55
5283;BME280;15376;48.540;9.268;2023-07-20T07:57:25;97415.59;;;22.42;57.85
5283;BME280;15376;48.540;9.268;2023-07-20T07:59:50;97411.59;;;22.12;59.03
5283;BME280;15376;48.540;9.268;2023-07-20T08:02:15;97424.28;;;22.07;60.23
5283;BME280;15376;48.540;9.268;2023-07-20T08:04:41;97416.56;;;21.93;59.57
5283;BME280;15376;48.540;9.268;2023-07-20T08:07:06;97418.94;;;22.17;61.00
5283;BME280;15376;48.540;9.268;2023-07-20T08:09:31;97416.63;;;22.31;59.27
5283;BME280;15376;48.540;9.268;2023-07-20T08:11:57;97381.41;;;22.25;59.76
5283;BME280;15376;48.540;9.268;2023-07-20T08:14:23;97364.59;;;22.18;61.17
5283;BME280;15376;48.540;9.268;2023-07-20T08:16:48;97423.09;;;22.67;57.80
5283;BME280;15376;48.540;9.268;2023-07-20T08:19:14;97415.59;;;22.42;59.13
5283;BME280;15376;48.540;9.268;2023-07-20T08:21:39;97408.03;;;22.44;59.64
5283;BME280;15376;48.540;9.268;2023-07-20T08:24:05;97432.00;;;22.62;56.73
5283;BME280;15376;48.540;9.268;2023-07-20T08:26:30;97417.75;;;22.40;56.75
5283;BME280;15376;48.540;9.268;2023-07-20T08:28:56;97405.75;;;22.25;57.44
5283;BME280;15376;48.540;9.268;2023-07-20T08:31:21;97398.72;;;22.24;56.62
5283;BME280;15376;48.540;9.268;2023-07-20T08:33:47;97417.75;;;22.35;55.89
5283;BME280;15376;48.540;9.268;2023-07-20T08:36:12;97401.03;;;22.11;57.20
5283;BME280;15376;48.540;9.268;2023-07-20T08:38:38;97415.16;;;22.18;58.53
5283;BME280;15376;48.540;9.268;2023-07-20T08:41:03;97416.31;;;22.27;57.79
5283;BME280;15376;48.540;9.268;2023-07-20T08:43:30;97397.69;;;22.31;57.29
5283;BME280;15376;48.540;9.268;2023-07-20T08:45:57;97355.44;;;22.24;58.43
5283;BME280;15376;48.540;9.268;2023-07-20T08:48:22;97410.75;;;22.86;58.56
5283;BME280;15376;48.540;9.268;2023-07-20T08:50:52;97427.34;;;23.00;56.93
5283;BME280;15376;48.540;9.268;2023-07-20T08:53:22;97424.59;;;22.89;53.36
5283;BME280;15376;48.540;9.268;2023-07-20T08:55:50;97408.22;;;22.69;54.81
5283;BME280;15376;48.540;9.268;2023-07-20T08:58:17;97390.56;;;22.61;54.08
5283;BME280;15376;48.540;9.268;2023-07-20T09:00:43;97414.19;;;22.71;55.31
5283;BME280;15376;48.540;9.268;2023-07-20T09:03:08;97397.69;;;22.73;55.14
5283;BME280;15376;48.540;9.268;2023-07-20T09:05:35;97415.38;;;22.90;54.65
5283;BME280;15376;48.540;9.268;2023-07-20T09:08:00;97392.06;;;22.84;54.18
5283;BME280;15376;48.540;9.268;2023-07-20T09:10:27;97398.84;;;22.87;55.03
5283;BME280;15376;48.540;9.268;2023-07-20T09:12:52;97404.84;;;22.94;54.89
5283;BME280;15376;48.540;9.268;2023-07-20T09:15:19;97380.16;;;22.85;52.47
5283;BME280;15376;48.540;9.268;2023-07-20T09:17:46;97408.13;;;23.01;52.60
5283;BME280;15376;48.540;9.268;2023-07-20T09:20:12;97296.91;;;22.60;52.85
5283;BME280;15376;48.540;9.268;2023-07-20T09:22:39;97399.81;;;23.18;51.38
5283;BME280;15376;48.540;9.268;2023-07-20T09:25:11;97406.31;;;23.17;51.60
5283;BME280;15376;48.540;9.268;2023-07-20T09:27:38;97391.66;;;23.18;51.65
5283;BME280;15376;48.540;9.268;2023-07-20T09:30:05;97397.69;;;23.45;50.48
5283;BME280;15376;48.540;9.268;2023-07-20T09:32:43;97403.47;;;23.74;49.97
5283;BME280;15376;48.540;9.268;2023-07-20T09:35:16;97396.13;;;23.65;47.70
5283;BME280;15376;48.540;9.268;2023-07-20T09:37:57;97382.31;;;23.66;48.44
5283;BME280;15376;48.540;9.268;2023-07-20T09:40:24;97396.72;;;23.87;47.81
5283;BME280;15376;48.540;9.268;2023-07-20T09:42:51;97407.50;;;23.61;47.28
5283;BME280;15376;48.540;9.268;2023-07-20T09:45:17;97394.19;;;23.50;48.88
5283;BME280;15376;48.540;9.268;2023-07-20T09:47:43;97391.25;;;23.61;50.10
5283;BME280;15376;48.540;9.268;2023-07-20T09:50:08;97391.56;;;23.85;47.75
5283;BME280;15376;48.540;9.268;2023-07-20T09:52:39;97369.03;;;23.70;49.93
5283;BME280;15376;48.540;9.268;2023-07-20T09:55:10;97382.31;;;23.81;47.84
5283;BME280;15376;48.540;9.268;2023-07-20T09:57:37;97380.97;;;23.84;46.70
5283;BME280;15376;48.540;9.268;2023-07-20T10:00:04;97390.47;;;23.97;45.76
5283;BME280;15376;48.540;9.268;2023-07-20T10:02:42;97374.44;;;23.65;46.77
5283;BME280;15376;48.540;9.268;2023-07-20T10:05:12;97382.06;;;23.78;47.19
5283;BME280;15376;48.540;9.268;2023-07-20T10:07:43;97335.38;;;24.11;48.82
5283;BME280;15376;48.540;9.268;2023-07-20T10:10:10;97372.81;;;24.45;46.04
5283;BME280;15376;48.540;9.268;2023-07-20T10:12:37;97305.53;;;23.45;46.83
5283;BME280;15376;48.540;9.268;2023-07-20T10:15:11;97373.38;;;23.71;47.81
5283;BME280;15376;48.540;9.268;2023-07-20T10:17:43;97364.72;;;23.94;46.00
5283;BME280;15376;48.540;9.268;2023-07-20T10:20:16;97376.56;;;24.64;43.79
5283;BME280;15376;48.540;9.268;2023-07-20T10:22:45;97375.09;;;26.30;41.42
5283;BME280;15376;48.540;9.268;2023-07-20T10:25:13;97337.25;;;27.42;37.95
5283;BME280;15376;48.540;9.268;2023-07-20T10:27:39;97372.50;;;28.74;35.39
5283;BME280;15376;48.540;9.268;2023-07-20T10:30:05;97327.03;;;29.19;36.30
5283;BME280;15376;48.540;9.268;2023-07-20T10:32:31;97345.38;;;30.44;33.33
5283;BME280;15376;48.540;9.268;2023-07-20T10:34:57;97366.00;;;31.12;32.87
5283;BME280;15376;48.540;9.268;2023-07-20T10:37:51;97361.97;;;32.56;30.09
5283;BME280;15376;48.540;9.268;2023-07-20T10:40:33;97339.50;;;33.01;28.86
5283;BME280;15376;48.540;9.268;2023-07-20T10:43:04;97330.84;;;33.82;28.24
5283;BME280;15376;48.540;9.268;2023-07-20T10:45:39;97340.94;;;34.44;25.61
5283;BME280;15376;48.540;9.268;2023-07-20T10:48:07;97345.44;;;34.49;26.07
5283;BME280;15376;48.540;9.268;2023-07-20T10:50:37;97355.91;;;34.55;27.21
5283;BME280;15376;48.540;9.268;2023-07-20T10:53:17;97348.59;;;34.84;25.88
5283;BME280;15376;48.540;9.268;2023-07-20T10:55:43;97353.00;;;34.97;26.84
5283;BME280;15376;48.540;9.268;2023-07-20T10:58:14;97328.16;;;33.32;25.98
5283;BME280;15376;48.540;9.268;2023-07-20T11:01:00;97306.34;;;30.07;28.68
5283;BME280;15376;48.540;9.268;2023-07-20T11:03:27;97332.16;;;29.93;30.73
5283;BME280;15376;48.540;9.268;2023-07-20T11:05:53;97304.75;;;31.51;29.64
5283;BME280;15376;48.540;9.268;2023-07-20T11:08:38;97334.72;;;33.39;25.56
5283;BME280;15376;48.540;9.268;2023-07-20T11:11:29;97331.69;;;34.28;26.60
5283;BME280;15376;48.540;9.268;2023-07-20T11:14:02;97336.38;;;34.60;23.48
5283;BME280;15376;48.540;9.268;2023-07-20T11:16:40;97337.91;;;34.25;24.27
5283;BME280;15376;48.540;9.268;2023-07-20T11:19:20;97319.88;;;34.97;23.27
5283;BME280;15376;48.540;9.268;2023-07-20T11:21:47;97321.88;;;34.39;24.34
5283;BME280;15376;48.540;9.268;2023-07-20T11:24:14;97275.69;;;34.36;25.31
5283;BME280;15376;48.540;9.268;2023-07-20T11:26:44;97343.09;;;35.32;24.02
5283;BME280;15376;48.540;9.268;2023-07-20T11:29:10;97336.34;;;33.61;25.70
5283;BME280;15376;48.540;9.268;2023-07-20T11:31:40;97297.88;;;32.35;25.94
5283;BME280;15376;48.540;9.268;2023-07-20T11:34:07;97325.22;;;31.36;27.63
5283;BME280;15376;48.540;9.268;2023-07-20T11:36:33;97326.66;;;32.03;26.61
5283;BME280;15376;48.540;9.268;2023-07-20T11:38:59;97301.81;;;30.34;29.67
5283;BME280;15376;48.540;9.268;2023-07-20T11:41:25;97254.50;;;29.89;30.21
5283;BME280;15376;48.540;9.268;2023-07-20T11:43:54;97260.31;;;31.40;28.76
5283;BME280;15376;48.540;9.268;2023-07-20T11:46:19;97307.03;;;33.15;26.23
5283;BME280;15376;48.540;9.268;2023-07-20T11:48:45;97305.16;;;32.05;26.45
5283;BME280;15376;48.540;9.268;2023-07-20T11:51:14;97285.13;;;32.22;27.78
5283;BME280;15376;48.540;9.268;2023-07-20T11:53:41;97235.34;;;32.53;27.23
5283;BME280;15376;48.540;9.268;2023-07-20T11:56:07;97298.75;;;33.44;25.89
5283;BME280;15376;48.540;9.268;2023-07-20T11:58:33;97293.97;;;32.74;26.90
5283;BME280;15376;48.540;9.268;2023-07-20T12:00:58;97291.25;;;32.65;26.77
5283;BME280;15376;48.540;9.268;2023-07-20T12:03:24;97292.66;;;33.09;25.57
5283;BME280;15376;48.540;9.268;2023-07-20T12:05:49;97291.88;;;32.33;26.17
5283;BME280;15376;48.540;9.268;2023-07-20T12:08:15;97287.53;;;32.70;24.49
5283;BME280;15376;48.540;9.268;2023-07-20T12:10:41;97283.22;;;32.52;26.61
5283;BME280;15376;48.540;9.268;2023-07-20T12:13:10;97285.66;;;32.53;25.78
5283;BME280;15376;48.540;9.268;2023-07-20T12:15:37;97288.69;;;32.60;26.06
5283;BME280;15376;48.540;9.268;2023-07-20T12:18:02;97281.97;;;33.08;25.52
5283;BME280;15376;48.540;9.268;2023-07-20T12:20:36;97280.56;;;34.18;24.03
5283;BME280;15376;48.540;9.268;2023-07-20T12:23:12;97290.94;;;32.29;24.83
5283;BME280;15376;48.540;9.268;2023-07-20T12:25:45;97242.91;;;32.26;25.10
5283;BME280;15376;48.540;9.268;2023-07-20T12:28:11;97272.66;;;32.24;27.24
5283;BME280;15376;48.540;9.268;2023-07-20T12:30:38;97275.44;;;32.92;26.46
5283;BME280;15376;48.540;9.268;2023-07-20T12:33:04;97271.72;;;34.25;23.82
5283;BME280;15376;48.540;9.268;2023-07-20T12:35:30;97251.91;;;34.68;23.58
5283;BME280;15376;48.540;9.268;2023-07-20T12:37:56;97270.25;;;35.37;22.47
5283;BME280;15376;48.540;9.268;2023-07-20T12:40:21;97254.28;;;35.18;22.16
5283;BME280;15376;48.540;9.268;2023-07-20T12:42:46;97246.59;;;33.60;23.26
5283;BME280;15376;48.540;9.268;2023-07-20T12:45:13;97259.34;;;31.36;24.62
5283;BME280;15376;48.540;9.268;2023-07-20T12:47:39;97233.38;;;29.58;28.11
5283;BME280;15376;48.540;9.268;2023-07-20T12:50:04;97258.91;;;29.76;27.76
5283;BME280;15376;48.540;9.268;2023-07-20T12:52:31;97255.16;;;31.56;26.50
5283;BME280;15376;48.540;9.268;2023-07-20T12:54:57;97249.31;;;32.77;25.47
5283;BME280;15376;48.540;9.268;2023-07-20T12:57:23;97250.94;;;33.20;23.90
5283;BME280;15376;48.540;9.268;2023-07-20T12:59:48;97252.22;;;31.96;25.71
5283;BME280;15376;48.540;9.268;2023-07-20T13:02:14;97194.59;;;30.27;26.90
5283;BME280;15376;48.540;9.268;2023-07-20T13:04:39;97240.13;;;31.10;27.87
5283;BME280;15376;48.540;9.268;2023-07-20T13:07:05;97198.16;;;31.01;26.38
5283;BME280;15376;48.540;9.268;2023-07-20T13:09:30;97222.16;;;31.65;27.31
5283;BME280;15376;48.540;9.268;2023-07-20T13:11:55;97231.25;;;32.21;26.00
5283;BME280;15376;48.540;9.268;2023-07-20T13:14:22;97222.78;;;32.72;25.79